Time;durP1;ratioP1;P1;durP2;ratioP2;P2;SDS_P1;SDS_P2;PMS_P1;PMS_P2;Temp;Humidity;BMP_temperature;BMP_pressure;BME280_temperature;BME280_humidity;BME280_pressure;Samples;Min_cycle;Max_cycle;Signal;HPM_P1;HPM_P2
2022/07/26 06:56:17;;;;;;;;;;;16.10;99.90;;;;;;5107545;27;20425;-45
2022/07/26 06:58:43;;;;;;;8.57;3.75;;;16.00;99.90;;;;;;5069327;28;19921;-43
2022/07/26 07:01:10;;;;;;;8.48;3.92;;;16.00;99.90;;;;;;5070223;28;20472;-53
2022/07/26 07:03:37;;;;;;;8.18;3.42;;;16.20;99.90;;;;;;5069409;28;20125;-49
2022/07/26 07:06:04;;;;;;;6.80;3.20;;;16.30;99.90;;;;;;5070089;28;20045;-45
2022/07/26 07:08:31;;;;;;;9.50;3.33;;;16.40;99.90;;;;;;5069811;28;20049;-43
2022/07/26 07:10:57;;;;;;;8.13;3.30;;;16.40;99.90;;;;;;5069941;28;20519;-49
2022/07/26 07:13:24;;;;;;;9.55;3.35;;;16.50;99.90;;;;;;5073400;28;20064;-46
2022/07/26 07:15:51;;;;;;;11.93;3.28;;;16.50;99.90;;;;;;5069807;28;20033;-50
2022/07/26 07:18:19;;;;;;;10.52;3.10;;;16.60;99.90;;;;;;5062995;28;20368;-42
2022/07/26 07:20:46;;;;;;;8.07;2.70;;;16.70;99.90;;;;;;5069029;28;20124;-48
2022/07/26 07:23:13;;;;;;;7.07;3.22;;;16.70;99.90;;;;;;5069900;28;20053;-45
2022/07/26 07:25:39;;;;;;;6.82;2.70;;;16.90;99.90;;;;;;5063363;28;20052;-52
2022/07/26 07:28:10;;;;;;;9.95;3.08;;;17.10;99.90;;;;;;5065122;28;20411;-46
2022/07/26 07:30:39;;;;;;;7.10;2.78;;;17.20;99.90;;;;;;5077936;28;20053;-44
2022/07/26 07:33:08;;;;;;;10.52;2.95;;;17.30;99.90;;;;;;5063471;28;20564;-50
2022/07/26 07:35:48;;;;;;;10.52;3.38;;;17.50;99.90;;;;;;5069427;28;20466;-43
2022/07/26 07:38:15;;;;;;;14.20;5.55;;;17.50;99.90;;;;;;5069787;28;20036;-48
2022/07/26 07:40:43;;;;;;;9.23;4.72;;;17.50;99.90;;;;;;5069285;28;20037;-46
2022/07/26 07:43:10;;;;;;;11.95;4.07;;;17.50;99.70;;;;;;5069305;28;20067;-45
2022/07/26 07:45:36;;;;;;;7.97;2.65;;;17.50;99.90;;;;;;5069295;28;20128;-42
2022/07/26 07:48:03;;;;;;;10.10;2.70;;;17.60;99.30;;;;;;5069131;28;20491;-47
2022/07/26 07:50:30;;;;;;;10.45;2.58;;;17.70;99.00;;;;;;5066706;28;20073;-45
2022/07/26 07:52:57;;;;;;;9.00;2.45;;;17.80;99.80;;;;;;5068580;28;20119;-45
2022/07/26 07:55:27;;;;;;;8.10;2.80;;;17.80;99.10;;;;;;5068364;28;20049;-44
2022/07/26 07:58:12;;;;;;;8.70;2.50;;;17.80;98.90;;;;;;5068133;28;20091;-41
2022/07/26 08:00:40;;;;;;;9.63;2.13;;;17.80;98.90;;;;;;5068464;28;20454;-43
2022/07/26 08:03:06;;;;;;;5.95;2.28;;;17.90;98.70;;;;;;5068852;28;20041;-48
2022/07/26 08:05:33;;;;;;;8.02;2.50;;;17.90;98.50;;;;;;5064537;28;20496;-47
2022/07/26 08:08:05;;;;;;;8.68;2.42;;;17.90;98.20;;;;;;5055415;28;20448;-43
2022/07/26 08:10:33;;;;;;;6.60;2.60;;;17.90;98.20;;;;;;5055546;28;20450;-45
2022/07/26 08:13:09;;;;;;;7.00;2.90;;;17.90;97.90;;;;;;5055617;28;20056;-52
2022/07/26 08:15:36;;;;;;;7.53;3.17;;;17.80;98.20;;;;;;5052742;28;20528;-45
2022/07/26 08:18:04;;;;;;;12.57;3.17;;;17.70;98.10;;;;;;5049059;28;20037;-50
2022/07/26 08:20:34;;;;;;;10.25;3.28;;;17.70;98.20;;;;;;5049068;28;20048;-48
2022/07/26 08:23:00;;;;;;;7.95;2.97;;;17.80;98.10;;;;;;5054296;28;20044;-48
2022/07/26 08:25:27;;;;;;;8.63;2.60;;;17.80;97.70;;;;;;5054860;28;20373;-50
2022/07/26 08:27:54;;;;;;;8.85;2.67;;;17.80;97.60;;;;;;5049087;28;20070;-49
2022/07/26 08:30:41;;;;;;;7.70;2.78;;;17.90;97.20;;;;;;5051199;28;20138;-42
2022/07/26 08:33:07;;;;;;;8.82;3.00;;;17.90;97.30;;;;;;5052371;28;20045;-43
2022/07/26 08:35:34;;;;;;;8.98;3.53;;;18.00;97.20;;;;;;5054705;28;20041;-44
2022/07/26 08:38:01;;;;;;;7.95;3.72;;;18.10;97.20;;;;;;5054652;28;20061;-43
2022/07/26 08:40:27;;;;;;;14.02;4.10;;;18.00;97.10;;;;;;5053989;28;20376;-46
2022/07/26 08:42:54;;;;;;;9.73;4.10;;;17.90;97.20;;;;;;5054697;28;20033;-45
2022/07/26 08:45:21;;;;;;;7.82;3.95;;;17.90;97.20;;;;;;5054325;28;20373;-45
2022/07/26 08:47:48;;;;;;;8.32;4.13;;;17.90;97.20;;;;;;5054573;28;20098;-47
2022/07/26 08:50:34;;;;;;;6.82;3.97;;;17.90;97.20;;;;;;5054486;28;20385;-51
2022/07/26 08:53:02;;;;;;;7.90;4.22;;;17.90;97.20;;;;;;5054625;28;20049;-41
2022/07/26 08:55:29;;;;;;;12.40;4.20;;;17.90;97.00;;;;;;5054134;28;20068;-47
2022/07/26 08:58:16;;;;;;;8.13;4.07;;;18.00;97.10;;;;;;5052775;28;20037;-48
2022/07/26 09:00:44;;;;;;;8.27;3.88;;;18.00;97.00;;;;;;5052420;28;20037;-48
2022/07/26 09:03:10;;;;;;;8.48;4.13;;;18.10;97.00;;;;;;5058448;28;20106;-52
2022/07/26 09:05:38;;;;;;;10.73;4.13;;;18.20;96.50;;;;;;5053950;28;20045;-49
2022/07/26 09:08:05;;;;;;;8.35;3.88;;;18.30;96.30;;;;;;5051989;28;20052;-53
2022/07/26 09:10:32;;;;;;;8.82;4.55;;;18.20;96.30;;;;;;5051549;28;20045;-49
2022/07/26 09:13:04;;;;;;;9.50;4.35;;;18.40;96.10;;;;;;5052229;28;20037;-45
2022/07/26 09:15:31;;;;;;;7.68;4.00;;;18.50;96.00;;;;;;5052019;28;20479;-46
2022/07/26 09:17:58;;;;;;;9.18;4.07;;;18.60;95.70;;;;;;5052671;28;20041;-47
2022/07/26 09:20:24;;;;;;;9.13;4.10;;;18.60;95.50;;;;;;5052317;28;20036;-47
2022/07/26 09:22:54;;;;;;;9.05;4.28;;;18.70;95.40;;;;;;5053670;28;20091;-46
2022/07/26 09:25:20;;;;;;;12.90;4.70;;;18.80;95.20;;;;;;5052325;28;20537;-48
2022/07/26 09:27:47;;;;;;;9.65;4.05;;;18.80;95.20;;;;;;5053859;28;20047;-46
2022/07/26 09:30:14;;;;;;;7.05;4.18;;;18.90;95.00;;;;;;5053895;28;20096;-46
2022/07/26 09:32:41;;;;;;;12.77;4.47;;;19.10;94.60;;;;;;5053843;28;20049;-47
2022/07/26 09:35:08;;;;;;;6.85;3.78;;;19.30;94.20;;;;;;5053330;28;20144;-45
2022/07/26 09:37:54;;;;;;;7.40;4.07;;;19.30;94.00;;;;;;5053460;28;20040;-49
2022/07/26 09:40:21;;;;;;;9.13;4.43;;;19.50;94.00;;;;;;5053428;28;20091;-48
2022/07/26 09:42:48;;;;;;;6.95;3.15;;;19.70;93.80;;;;;;5053558;28;20052;-51
2022/07/26 09:45:15;;;;;;;10.18;3.33;;;19.80;92.80;;;;;;5053168;28;20053;-50
2022/07/26 09:47:42;;;;;;;8.48;3.35;;;19.90;92.50;;;;;;5052236;28;20135;-42
2022/07/26 09:50:09;;;;;;;10.88;3.70;;;19.80;92.20;;;;;;5053648;28;20499;-45
2022/07/26 09:52:37;;;;;;;9.02;3.53;;;19.70;92.50;;;;;;5053741;28;20492;-52
2022/07/26 09:55:04;;;;;;;8.18;3.33;;;19.60;92.50;;;;;;5053430;28;20053;-47
2022/07/26 09:57:31;;;;;;;9.27;3.80;;;19.60;92.70;;;;;;5053474;28;20415;-45
2022/07/26 09:59:58;;;;;;;6.32;3.47;;;19.60;92.70;;;;;;5053668;28;20162;-51
2022/07/26 10:02:25;;;;;;;9.90;3.40;;;19.60;92.70;;;;;;5053660;28;20049;-46
2022/07/26 10:04:51;;;;;;;10.38;3.33;;;19.60;92.70;;;;;;5053218;28;20045;-39
2022/07/26 10:07:18;;;;;;;8.25;3.90;;;19.70;92.40;;;;;;5052258;28;20041;-42
2022/07/26 10:09:45;;;;;;;9.15;3.90;;;19.80;92.10;;;;;;5053230;28;20547;-43
2022/07/26 10:12:12;;;;;;;7.65;3.38;;;20.00;91.90;;;;;;5053341;28;20052;-39
2022/07/26 10:14:39;;;;;;;6.97;2.95;;;20.00;92.00;;;;;;5053503;28;20119;-42
2022/07/26 10:17:06;;;;;;;8.00;2.85;;;20.10;91.80;;;;;;5052970;28;20124;-39
2022/07/26 10:19:32;;;;;;;7.15;3.35;;;20.30;91.50;;;;;;5053390;28;20083;-40
2022/07/26 10:22:07;;;;;;;9.38;3.25;;;20.50;91.00;;;;;;5053498;28;20102;-40
2022/07/26 10:24:34;;;;;;;7.95;3.00;;;20.70;90.90;;;;;;5053399;28;20045;-44
2022/07/26 10:27:00;;;;;;;7.82;3.05;;;20.70;90.80;;;;;;5053401;28;20450;-41
2022/07/26 10:29:27;;;;;;;8.27;3.05;;;20.90;91.00;;;;;;5051840;28;20154;-40
2022/07/26 10:31:54;;;;;;;4.75;2.60;;;21.20;90.40;;;;;;5052902;28;20049;-41
2022/07/26 10:34:21;;;;;;;8.88;2.55;;;21.20;90.10;;;;;;5053113;28;20068;-44
2022/07/26 10:36:47;;;;;;;4.85;2.95;;;21.40;89.80;;;;;;5052905;28;20048;-44
2022/07/26 10:39:19;;;;;;;6.82;2.70;;;21.40;88.20;;;;;;5052934;28;20068;-41
2022/07/26 10:41:46;;;;;;;8.73;2.40;;;21.30;88.50;;;;;;5053058;28;20048;-43
2022/07/26 10:44:13;;;;;;;8.32;2.30;;;21.30;88.20;;;;;;5052812;28;20403;-39
2022/07/26 10:46:40;;;;;;;5.00;2.67;;;21.30;88.40;;;;;;5052756;28;20044;-41
2022/07/26 10:49:06;;;;;;;5.10;2.17;;;21.40;87.90;;;;;;5052929;28;20075;-39
2022/07/26 10:51:33;;;;;;;6.68;2.55;;;21.40;87.40;;;;;;5052731;28;20404;-39
2022/07/26 10:54:00;;;;;;;6.07;2.45;;;21.50;88.00;;;;;;5052412;28;20057;-44
2022/07/26 10:56:27;;;;;;;6.80;2.60;;;21.60;87.50;;;;;;5053010;28;20558;-42
2022/07/26 10:58:58;;;;;;;6.90;2.53;;;21.60;86.60;;;;;;5052736;28;20068;-42
2022/07/26 11:01:25;;;;;;;7.32;2.55;;;21.70;87.20;;;;;;5051646;28;20484;-43
2022/07/26 11:03:52;;;;;;;8.15;2.53;;;22.00;86.60;;;;;;5052868;28;20075;-40
2022/07/26 11:06:19;;;;;;;7.70;2.58;;;22.10;85.10;;;;;;5051332;28;20454;-40
2022/07/26 11:08:45;;;;;;;6.32;2.47;;;22.20;84.30;;;;;;5052799;28;20037;-42
2022/07/26 11:11:14;;;;;;;4.43;2.13;;;22.10;84.30;;;;;;5052753;28;20040;-41
2022/07/26 11:13:40;;;;;;;6.45;2.55;;;22.10;84.20;;;;;;5052614;28;20037;-43
2022/07/26 11:16:07;;;;;;;6.97;2.38;;;22.10;82.70;;;;;;5052713;28;20130;-43
2022/07/26 11:18:34;;;;;;;5.10;2.28;;;22.10;83.70;;;;;;5052876;28;20582;-40
2022/07/26 11:21:01;;;;;;;7.15;2.47;;;22.20;83.20;;;;;;5052581;28;20103;-42
2022/07/26 11:23:27;;;;;;;7.28;2.22;;;22.20;83.30;;;;;;5051254;28;20056;-38
2022/07/26 11:25:54;;;;;;;4.32;2.30;;;22.30;82.90;;;;;;5052516;28;20395;-39
2022/07/26 11:28:27;;;;;;;5.43;2.22;;;22.40;83.00;;;;;;5052637;28;20041;-45
2022/07/26 11:30:54;;;;;;;7.07;2.80;;;22.50;82.70;;;;;;5051264;28;20392;-39
2022/07/26 11:33:21;;;;;;;7.25;2.63;;;22.60;81.90;;;;;;5051791;28;20061;-40
2022/07/26 11:35:48;;;;;;;7.03;2.85;;;22.40;82.20;;;;;;5052668;28;20049;-38
2022/07/26 11:38:14;;;;;;;8.38;2.72;;;22.10;81.70;;;;;;5052413;28;20546;-38
2022/07/26 11:40:41;;;;;;;9.75;2.80;;;22.00;82.40;;;;;;5052785;28;20049;-41
2022/07/26 11:43:08;;;;;;;8.95;2.78;;;21.80;83.60;;;;;;5056341;28;20044;-41
2022/07/26 11:45:35;;;;;;;7.03;2.85;;;22.00;83.40;;;;;;5056326;28;20102;-39
2022/07/26 11:48:01;;;;;;;8.70;3.28;;;22.00;82.20;;;;;;5056176;28;20102;-40
2022/07/26 11:50:28;;;;;;;8.18;2.55;;;22.00;82.20;;;;;;5056145;28;20033;-42
2022/07/26 11:52:55;;;;;;;4.78;2.60;;;22.00;82.30;;;;;;5055981;28;20048;-40
2022/07/26 11:55:22;;;;;;;8.27;2.72;;;21.90;82.10;;;;;;5055789;28;20099;-41
2022/07/26 11:57:48;;;;;;;6.60;2.35;;;21.80;82.30;;;;;;5055799;28;20044;-40
2022/07/26 12:00:15;;;;;;;8.85;2.45;;;21.70;81.70;;;;;;5088239;28;20119;-39
2022/07/26 12:02:42;;;;;;;7.47;2.53;;;21.70;81.80;;;;;;5056072;28;20068;-40
2022/07/26 12:05:08;;;;;;;7.00;2.55;;;21.50;81.80;;;;;;5055847;28;20049;-39
2022/07/26 12:07:35;;;;;;;8.85;2.88;;;21.40;82.20;;;;;;5055624;28;20432;-36
2022/07/26 12:10:03;;;;;;;10.02;3.17;;;21.40;82.70;;;;;;5055877;28;20044;-35
2022/07/26 12:12:30;;;;;;;8.82;3.40;;;21.00;83.30;;;;;;5055790;28;20094;-37
2022/07/26 12:14:57;;;;;;;8.18;3.03;;;21.10;83.30;;;;;;5055510;28;20041;-38
2022/07/26 12:17:24;;;;;;;8.95;3.10;;;21.10;84.00;;;;;;5055537;28;20056;-41
2022/07/26 12:19:51;;;;;;;11.95;2.95;;;21.30;83.90;;;;;;5055759;28;20045;-39
2022/07/26 12:22:17;;;;;;;8.93;2.92;;;21.30;83.20;;;;;;5055651;28;20099;-39
2022/07/26 12:24:44;;;;;;;8.35;3.00;;;21.30;83.60;;;;;;5055543;28;20476;-42
2022/07/26 12:27:11;;;;;;;11.00;3.13;;;21.40;83.30;;;;;;5055383;28;20464;-37
2022/07/26 12:29:37;;;;;;;11.10;3.42;;;21.40;82.90;;;;;;5055379;28;20037;-39
2022/07/26 12:32:04;;;;;;;7.15;2.80;;;21.40;82.60;;;;;;5055418;28;20056;-37
2022/07/26 12:34:37;;;;;;;10.18;2.78;;;21.50;82.50;;;;;;5055216;28;20513;-38
2022/07/26 12:37:04;;;;;;;9.85;3.10;;;21.70;82.20;;;;;;5055197;28;20629;-38
2022/07/26 12:39:31;;;;;;;7.22;2.97;;;21.70;81.30;;;;;;5055252;28;20045;-41
2022/07/26 12:41:58;;;;;;;5.93;2.70;;;21.70;80.90;;;;;;5055084;28;20553;-40
2022/07/26 12:44:24;;;;;;;6.45;2.95;;;21.70;81.50;;;;;;5055164;28;20048;-38
2022/07/26 12:46:51;;;;;;;8.57;2.83;;;21.70;81.10;;;;;;5055011;28;20086;-37
2022/07/26 12:49:18;;;;;;;6.65;2.40;;;21.80;81.60;;;;;;5053762;28;20400;-39
2022/07/26 12:51:45;;;;;;;8.20;2.63;;;21.90;80.50;;;;;;5054822;28;20040;-40
2022/07/26 12:54:12;;;;;;;7.78;2.75;;;21.90;80.60;;;;;;5053282;28;20045;-42
2022/07/26 12:56:39;;;;;;;7.03;3.17;;;21.90;80.10;;;;;;5054706;28;20095;-40
2022/07/26 12:59:06;;;;;;;9.38;2.88;;;21.90;80.40;;;;;;5054340;28;20465;-38
2022/07/26 13:01:33;;;;;;;9.23;2.58;;;21.80;80.30;;;;;;5054069;28;20514;-36
2022/07/26 13:03:59;;;;;;;6.03;2.70;;;21.80;80.80;;;;;;5054061;28;20040;-34
2022/07/26 13:06:26;;;;;;;7.00;2.30;;;21.70;81.00;;;;;;5052833;28;20091;-37
2022/07/26 13:08:55;;;;;;;10.32;2.83;;;21.60;80.90;;;;;;5053913;28;20048;-41
2022/07/26 13:11:22;;;;;;;7.10;2.47;;;21.50;80.40;;;;;;5054045;28;20434;-39
2022/07/26 13:13:49;;;;;;;7.97;2.75;;;21.50;81.10;;;;;;5054186;28;20064;-36
2022/07/26 13:16:15;;;;;;;7.57;2.80;;;21.50;80.50;;;;;;5036204;28;20110;-36
2022/07/26 13:18:42;;;;;;;6.47;2.72;;;21.20;81.40;;;;;;5052910;28;20075;-37
2022/07/26 13:21:09;;;;;;;5.88;3.00;;;21.30;81.60;;;;;;5052398;28;20095;-36
2022/07/26 13:23:36;;;;;;;5.78;2.53;;;21.30;81.80;;;;;;5052790;28;20458;-37
2022/07/26 13:26:04;;;;;;;6.90;2.53;;;21.30;82.10;;;;;;5053202;28;20108;-41
2022/07/26 13:28:35;;;;;;;5.18;2.58;;;21.30;81.80;;;;;;5053832;28;20064;-38
2022/07/26 13:31:01;;;;;;;9.95;2.80;;;21.30;85.00;;;;;;5052963;28;20040;-40
2022/07/26 13:33:28;;;;;;;9.40;2.80;;;21.20;87.80;;;;;;5054068;28;20037;-38
2022/07/26 13:35:56;;;;;;;10.65;2.83;;;21.10;87.90;;;;;;5054291;28;20045;-38
2022/07/26 13:38:23;;;;;;;6.80;2.50;;;21.10;88.50;;;;;;5052583;28;20045;-36
2022/07/26 13:40:50;;;;;;;8.93;2.58;;;21.10;88.00;;;;;;5054115;28;20049;-37
2022/07/26 13:43:16;;;;;;;6.57;2.17;;;21.10;87.60;;;;;;5053173;28;20049;-38
2022/07/26 13:45:43;;;;;;;6.22;2.10;;;21.00;87.20;;;;;;5052600;28;20037;-40
2022/07/26 13:48:10;;;;;;;7.50;2.28;;;21.00;87.30;;;;;;5052475;28;20045;-38
2022/07/26 13:50:37;;;;;;;6.93;2.28;;;21.10;87.30;;;;;;5052362;28;20114;-37
2022/07/26 13:53:03;;;;;;;11.40;2.65;;;21.20;87.10;;;;;;5053098;28;20033;-36
2022/07/26 13:55:30;;;;;;;10.60;2.50;;;21.20;86.80;;;;;;5053615;28;20071;-37
2022/07/26 13:57:57;;;;;;;5.85;2.00;;;21.20;86.50;;;;;;5053595;28;20052;-38
2022/07/26 14:00:24;;;;;;;8.02;2.17;;;21.30;86.90;;;;;;5053635;28;20064;-36
2022/07/26 14:02:50;;;;;;;5.82;2.15;;;21.30;86.40;;;;;;5052965;28;20033;-36
2022/07/26 14:05:19;;;;;;;9.20;2.60;;;21.40;86.40;;;;;;5051753;28;20059;-39
2022/07/26 14:07:45;;;;;;;7.38;2.42;;;21.60;86.40;;;;;;5052546;28;20080;-39
2022/07/26 14:10:12;;;;;;;8.73;2.35;;;21.90;85.80;;;;;;5053235;28;20037;-38
2022/07/26 14:12:39;;;;;;;9.20;2.40;;;22.00;83.20;;;;;;5053032;28;20124;-40
2022/07/26 14:15:08;;;;;;;9.18;2.42;;;22.10;84.00;;;;;;5053189;28;20098;-55
2022/07/26 14:17:44;;;;;;;7.18;2.40;;;22.30;84.00;;;;;;5049773;28;20415;-50
2022/07/26 14:20:11;;;;;;;5.53;2.22;;;22.50;82.60;;;;;;5048448;28;20500;-52
2022/07/26 14:22:37;;;;;;;7.85;2.08;;;22.50;80.60;;;;;;5050244;28;20053;-53
2022/07/26 14:25:05;;;;;;;8.00;2.55;;;22.40;78.80;;;;;;5051047;28;20397;-53
2022/07/26 14:27:32;;;;;;;10.15;2.80;;;22.40;78.90;;;;;;5050800;28;20458;-55
2022/07/26 14:29:59;;;;;;;6.50;1.90;;;22.70;78.40;;;;;;5051296;28;20496;-55
2022/07/26 14:32:25;;;;;;;7.22;2.00;;;22.80;77.90;;;;;;5051468;28;20037;-50
2022/07/26 14:34:52;;;;;;;7.30;2.40;;;22.90;78.60;;;;;;5052734;28;20400;-53
2022/07/26 14:37:19;;;;;;;9.32;3.22;;;23.20;77.60;;;;;;5050857;28;20048;-48
2022/07/26 14:40:06;;;;;;;6.40;2.40;;;23.20;77.80;;;;;;5050553;28;20041;-51
2022/07/26 14:42:33;;;;;;;6.82;2.30;;;23.10;76.90;;;;;;5050197;28;20056;-52
2022/07/26 14:44:59;;;;;;;8.52;2.40;;;23.10;77.40;;;;;;5050458;28;20045;-51
2022/07/26 14:47:26;;;;;;;8.35;2.40;;;23.00;77.30;;;;;;5050752;28;20504;-52
2022/07/26 14:49:53;;;;;;;10.73;2.33;;;23.10;77.30;;;;;;5051832;28;20055;-50
2022/07/26 14:52:19;;;;;;;5.68;2.53;;;23.20;77.40;;;;;;5052531;28;20110;-52
2022/07/26 14:54:46;;;;;;;6.18;2.20;;;23.40;76.80;;;;;;5052544;28;20134;-56
2022/07/26 14:57:13;;;;;;;10.98;2.50;;;23.50;76.00;;;;;;5052810;28;20041;-53
2022/07/26 14:59:40;;;;;;;6.55;2.33;;;23.60;75.80;;;;;;5052693;28;20049;-55
2022/07/26 15:02:06;;;;;;;7.30;2.85;;;23.60;75.50;;;;;;5051917;28;20380;-52
2022/07/26 15:04:33;;;;;;;6.50;2.40;;;23.70;75.30;;;;;;5052725;28;20041;-53
2022/07/26 15:07:00;;;;;;;5.85;2.20;;;23.70;73.00;;;;;;5052243;28;20041;-54
2022/07/26 15:09:27;;;;;;;6.75;2.50;;;23.30;73.30;;;;;;5052532;28;20106;-50
2022/07/26 15:11:53;;;;;;;6.75;1.90;;;23.40;74.20;;;;;;5050949;28;20120;-54
2022/07/26 15:14:20;;;;;;;6.47;2.13;;;23.60;73.60;;;;;;5052210;28;20060;-51
2022/07/26 15:16:47;;;;;;;5.97;2.10;;;23.70;74.10;;;;;;5054555;28;20064;-54
2022/07/26 15:19:14;;;;;;;7.15;2.25;;;23.90;72.80;;;;;;5056549;28;20121;-51
2022/07/26 15:21:40;;;;;;;5.75;2.22;;;24.00;71.70;;;;;;5055191;28;20088;-52
2022/07/26 15:24:08;;;;;;;7.22;2.10;;;24.00;72.00;;;;;;5056529;28;20087;-47
2022/07/26 15:26:35;;;;;;;7.70;1.75;;;24.10;72.00;;;;;;5056280;28;20131;-58
2022/07/26 15:29:02;;;;;;;4.65;1.42;;;24.20;70.80;;;;;;5056395;28;20029;-51
2022/07/26 15:31:30;;;;;;;7.75;1.92;;;24.30;70.20;;;;;;5056330;28;20077;-49
2022/07/26 15:34:03;;;;;;;6.70;2.22;;;24.30;70.90;;;;;;5056233;28;20124;-50
2022/07/26 15:36:30;;;;;;;6.25;2.25;;;24.00;71.40;;;;;;5056087;28;20079;-52
2022/07/26 15:38:56;;;;;;;9.10;2.28;;;23.80;71.40;;;;;;5056072;28;20041;-53
2022/07/26 15:41:40;;;;;;;5.60;2.00;;;23.90;71.10;;;;;;5056100;28;20045;-50
2022/07/26 15:44:06;;;;;;;7.10;2.20;;;23.80;71.30;;;;;;5055923;28;20049;-51
2022/07/26 15:46:34;;;;;;;6.00;1.80;;;23.80;71.30;;;;;;5055745;28;20037;-54
2022/07/26 15:49:02;;;;;;;6.30;2.28;;;23.80;71.60;;;;;;5055880;28;20060;-52
2022/07/26 15:51:29;;;;;;;7.30;2.00;;;24.00;71.30;;;;;;5055902;28;20041;-53
2022/07/26 15:53:55;;;;;;;4.35;1.67;;;24.00;70.70;;;;;;5055877;28;20080;-53
2022/07/26 15:56:22;;;;;;;8.80;2.13;;;24.00;70.90;;;;;;5055795;28;20523;-50
2022/07/26 15:58:49;;;;;;;6.95;2.10;;;24.00;70.90;;;;;;5055725;28;20049;-54
2022/07/26 16:01:16;;;;;;;6.63;1.85;;;23.90;71.00;;;;;;5055593;28;20041;-51
2022/07/26 16:03:42;;;;;;;6.20;1.90;;;23.80;70.60;;;;;;5053705;28;20047;-51
2022/07/26 16:06:09;;;;;;;7.78;2.10;;;23.80;71.10;;;;;;5055581;28;20124;-48
2022/07/26 16:08:36;;;;;;;6.15;1.88;;;23.90;70.40;;;;;;5055653;28;20094;-52
2022/07/26 16:11:23;;;;;;;6.38;1.67;;;24.20;70.30;;;;;;5055681;28;20045;-57
2022/07/26 16:13:49;;;;;;;4.43;1.60;;;24.60;69.00;;;;;;5055406;28;20045;-54
2022/07/26 16:16:27;;;;;;;4.13;1.75;;;24.60;68.40;;;;;;5055502;28;20052;-56
2022/07/26 16:18:54;;;;;;;8.60;2.00;;;24.60;68.60;;;;;;5055670;28;20049;-55
2022/07/26 16:21:21;;;;;;;9.05;2.03;;;24.70;69.10;;;;;;5055596;28;20045;-56
2022/07/26 16:23:49;;;;;;;6.68;2.03;;;24.60;68.10;;;;;;5055588;28;20553;-54
2022/07/26 16:26:16;;;;;;;7.22;2.00;;;24.70;68.10;;;;;;5054011;28;20073;-52
2022/07/26 16:28:43;;;;;;;4.95;1.90;;;24.70;68.20;;;;;;5055297;28;20114;-54
2022/07/26 16:31:09;;;;;;;5.50;1.40;;;24.60;68.00;;;;;;5054437;28;20043;-56
2022/07/26 16:33:36;;;;;;;6.00;1.90;;;24.70;68.30;;;;;;5055385;28;20399;-57
2022/07/26 16:36:11;;;;;;;6.45;1.73;;;24.80;67.80;;;;;;5055331;28;20037;-57
2022/07/26 16:38:38;;;;;;;9.35;2.40;;;25.20;66.90;;;;;;5055171;28;20082;-52
2022/07/26 16:41:05;;;;;;;6.75;1.70;;;25.30;66.70;;;;;;5055217;28;20494;-52
2022/07/26 16:43:31;;;;;;;8.57;2.40;;;25.20;66.60;;;;;;5055382;28;20040;-56
2022/07/26 16:45:58;;;;;;;7.20;2.17;;;25.30;67.10;;;;;;5055109;28;20047;-56
2022/07/26 16:48:25;;;;;;;4.93;1.80;;;25.90;66.80;;;;;;5055084;28;20076;-56
2022/07/26 16:50:52;;;;;;;4.57;1.85;;;26.50;65.60;;;;;;5055030;28;20037;-53
2022/07/26 16:53:18;;;;;;;6.68;2.08;;;26.30;64.40;;;;;;5055031;28;20041;-51
2022/07/26 16:55:48;;;;;;;4.93;1.77;;;25.90;64.70;;;;;;5054691;28;20053;-54
2022/07/26 16:58:15;;;;;;;4.65;1.63;;;25.50;65.50;;;;;;5054965;28;20049;-52
2022/07/26 17:00:42;;;;;;;5.72;1.83;;;25.30;65.80;;;;;;5054911;28;20041;-56
2022/07/26 17:03:09;;;;;;;5.25;1.50;;;25.00;65.80;;;;;;5054860;28;20037;-52
2022/07/26 17:05:35;;;;;;;7.80;1.90;;;24.40;66.50;;;;;;5054735;28;20049;-54
2022/07/26 17:08:02;;;;;;;6.13;1.60;;;24.20;66.90;;;;;;5054594;28;20045;-53
2022/07/26 17:10:29;;;;;;;4.78;1.67;;;24.00;68.10;;;;;;5054817;28;20549;-52
2022/07/26 17:12:55;;;;;;;5.55;1.70;;;23.80;67.90;;;;;;5054695;28;20041;-52
2022/07/26 17:15:22;;;;;;;5.20;1.58;;;23.70;68.40;;;;;;5054601;28;20503;-54
2022/07/26 17:17:49;;;;;;;6.13;2.00;;;23.60;68.50;;;;;;5054570;28;20067;-47
2022/07/26 17:20:16;;;;;;;8.68;1.73;;;23.60;68.70;;;;;;5053136;28;20446;-52
2022/07/26 17:22:42;;;;;;;7.90;1.83;;;23.30;69.00;;;;;;5054394;28;20076;-53
2022/07/26 17:25:09;;;;;;;9.70;2.30;;;23.10;69.60;;;;;;5054454;28;20045;-51
2022/07/26 17:27:36;;;;;;;10.75;2.00;;;23.10;69.90;;;;;;5054434;28;20059;-51
2022/07/26 17:30:02;;;;;;;6.57;1.58;;;22.90;69.60;;;;;;5054376;28;20037;-55
2022/07/26 17:32:32;;;;;;;8.07;1.75;;;22.60;70.00;;;;;;5053098;28;20048;-54
2022/07/26 17:34:59;;;;;;;10.45;1.90;;;22.40;70.80;;;;;;5053996;28;20029;-49
2022/07/26 17:37:26;;;;;;;9.00;2.08;;;22.30;73.30;;;;;;5054098;28;20056;-53
2022/07/26 17:39:54;;;;;;;9.80;2.33;;;22.20;74.50;;;;;;5053273;28;20072;-49
2022/07/26 17:42:22;;;;;;;7.53;1.83;;;22.10;75.60;;;;;;5052733;28;20045;-52
2022/07/26 17:44:49;;;;;;;8.60;1.90;;;22.10;76.20;;;;;;5053929;28;20091;-52
2022/07/26 17:47:16;;;;;;;7.05;1.70;;;22.10;77.10;;;;;;5053782;28;20087;-53
2022/07/26 17:49:55;;;;;;;11.95;2.08;;;22.10;77.60;;;;;;5053895;28;20060;-51
2022/07/26 17:52:22;;;;;;;8.80;2.28;;;22.00;78.00;;;;;;5053946;28;20064;-53
2022/07/26 17:54:49;;;;;;;10.88;2.20;;;22.10;78.80;;;;;;5053632;28;20384;-47
2022/07/26 17:57:16;;;;;;;9.50;1.98;;;22.00;79.00;;;;;;5053731;28;20041;-53
2022/07/26 17:59:43;;;;;;;8.60;2.65;;;22.10;78.90;;;;;;5053630;28;20487;-53
2022/07/26 18:02:10;;;;;;;12.20;2.40;;;22.10;79.40;;;;;;5053965;28;20041;-55
2022/07/26 18:04:37;;;;;;;11.55;2.60;;;22.00;79.40;;;;;;5053111;28;20048;-52
2022/07/26 18:07:03;;;;;;;11.20;2.20;;;22.10;79.40;;;;;;5053343;28;20037;-51
2022/07/26 21:25:39;;;;;;;5.32;2.42;;;18.00;98.10;;;;;;5058289;28;20387;-56
2022/07/26 21:28:05;;;;;;;6.07;2.30;;;17.80;97.60;;;;;;5055062;28;20079;-54
2022/07/26 21:30:32;;;;;;;8.52;2.30;;;17.90;97.40;;;;;;5050136;28;20091;-53
2022/07/26 21:32:59;;;;;;;9.15;2.40;;;17.90;97.60;;;;;;5049629;28;20055;-55
2022/07/26 21:35:26;;;;;;;5.03;2.10;;;18.00;97.40;;;;;;5050394;28;20111;-55
2022/07/26 21:37:52;;;;;;;6.20;2.50;;;18.00;97.50;;;;;;5050130;28;20404;-55
2022/07/26 21:40:19;;;;;;;4.97;2.35;;;18.10;97.30;;;;;;5049244;28;20073;-50
2022/07/26 21:42:46;;;;;;;8.88;2.80;;;18.20;97.30;;;;;;5049937;28;20045;-55
2022/07/26 21:45:13;;;;;;;5.05;2.00;;;18.30;97.20;;;;;;5051782;28;20056;-54
2022/07/26 21:47:39;;;;;;;6.03;2.38;;;18.30;97.10;;;;;;5050143;28;20045;-59
2022/07/26 21:50:06;;;;;;;4.78;1.90;;;18.30;97.00;;;;;;5049725;28;20041;-54
2022/07/26 21:52:33;;;;;;;5.88;2.20;;;18.40;97.10;;;;;;5049829;28;20037;-53
2022/07/26 21:54:59;;;;;;;4.72;2.60;;;18.30;97.20;;;;;;5048398;28;20558;-51
2022/07/26 21:57:26;;;;;;;5.95;2.55;;;18.30;97.40;;;;;;5049673;28;20099;-51
2022/07/26 21:59:53;;;;;;;5.63;2.15;;;18.30;97.50;;;;;;5049094;28;20510;-54
2022/07/26 22:02:19;;;;;;;5.57;2.70;;;18.40;97.60;;;;;;5049743;28;20041;-50
2022/07/26 22:04:47;;;;;;;6.22;2.35;;;18.40;97.70;;;;;;5048748;28;20500;-56
2022/07/26 22:07:14;;;;;;;6.82;2.63;;;18.40;97.70;;;;;;5049898;28;20484;-59
2022/07/26 22:09:40;;;;;;;8.38;2.58;;;18.30;97.80;;;;;;5049544;28;20041;-55
2022/07/26 22:12:07;;;;;;;9.73;2.67;;;18.30;97.70;;;;;;5048699;28;20450;-56
2022/07/26 22:14:34;;;;;;;7.40;2.20;;;18.30;97.60;;;;;;5039440;28;20472;-51
2022/07/26 22:17:01;;;;;;;9.48;2.40;;;18.30;97.40;;;;;;5046361;28;20463;-60
2022/07/26 22:19:27;;;;;;;7.45;2.53;;;18.30;97.30;;;;;;5049341;28;20084;-50
2022/07/26 22:21:54;;;;;;;11.07;2.80;;;18.30;97.60;;;;;;5048487;28;20099;-59
2022/07/26 22:24:21;;;;;;;9.07;2.53;;;18.30;97.70;;;;;;5048927;28;20120;-55
2022/07/26 22:26:48;;;;;;;11.27;2.63;;;18.30;97.70;;;;;;5048381;28;20124;-51
2022/07/26 22:29:14;;;;;;;8.98;2.75;;;18.20;97.30;;;;;;5048284;28;20041;-50
2022/07/26 22:31:41;;;;;;;10.95;2.72;;;18.30;97.30;;;;;;5049127;28;20128;-55
2022/07/26 22:34:08;;;;;;;10.30;2.35;;;18.20;97.60;;;;;;5047718;28;20521;-53
2022/07/26 22:36:35;;;;;;;9.38;2.40;;;18.10;97.90;;;;;;5035908;28;20045;-54
2022/07/26 22:39:01;;;;;;;11.50;2.40;;;18.00;97.90;;;;;;5035888;28;20095;-55
2022/07/26 22:41:28;;;;;;;10.18;2.20;;;18.00;98.50;;;;;;5034941;28;20045;-53
2022/07/26 22:43:58;;;;;;;11.40;2.30;;;17.90;98.30;;;;;;5035511;28;20045;-55
2022/07/26 22:46:24;;;;;;;10.57;2.47;;;17.90;98.90;;;;;;5039065;28;20514;-52
2022/07/26 22:48:54;;;;;;;7.00;2.20;;;17.80;98.80;;;;;;5035468;28;20038;-53
2022/07/26 22:51:21;;;;;;;7.95;2.45;;;17.80;99.10;;;;;;5035362;28;20059;-54
2022/07/26 22:53:48;;;;;;;13.05;2.50;;;17.80;99.00;;;;;;5034724;28;20037;-55
2022/07/26 22:56:14;;;;;;;9.45;2.13;;;17.80;99.40;;;;;;5035206;28;20472;-50
2022/07/26 22:58:45;;;;;;;7.68;2.30;;;17.70;99.20;;;;;;5034558;28;20038;-54